Time;durP1;ratioP1;P1;durP2;ratioP2;P2;SDS_P1;SDS_P2;PMS_P1;PMS_P2;Temp;Humidity;BMP_temperature;BMP_pressure;BME280_temperature;BME280_humidity;BME280_pressure;Samples;Min_cycle;Max_cycle;Signal;HPM_P1;HPM_P2
2024/03/31 00:00:05;;;;;;;0.50;0.50;;;;;;;11.62;67.89;96981.81;4982136;28;20050;-58
2024/03/31 00:02:31;;;;;;;0.60;0.60;;;;;;;11.37;68.16;96955.75;4983380;28;20054;-63
2024/03/31 00:04:57;;;;;;;0.50;0.50;;;;;;;11.55;68.36;96985.31;4983913;28;20065;-63
2024/03/31 00:07:23;;;;;;;0.50;0.50;;;;;;;11.73;67.55;96999.41;5000208;28;20066;-63
2024/03/31 00:09:49;;;;;;;0.50;0.50;;;;;;;11.65;69.00;97058.78;4981923;28;20057;-62
2024/03/31 00:12:18;;;;;;;0.43;0.43;;;;;;;11.69;68.82;96993.03;4994099;28;20061;-63
2024/03/31 00:14:44;;;;;;;0.60;0.60;;;;;;;11.61;68.65;97002.41;4999750;28;20604;-62
2024/03/31 00:17:10;;;;;;;0.50;0.50;;;;;;;11.63;68.84;97002.88;4968120;28;20058;-63
2024/03/31 00:19:36;;;;;;;0.50;0.50;;;;;;;11.48;68.52;97003.81;4983824;28;20066;-63
2024/03/31 00:22:02;;;;;;;0.50;0.50;;;;;;;11.41;68.93;96990.66;4983427;28;20133;-62
2024/03/31 00:24:28;;;;;;;0.50;0.50;;;;;;;11.35;69.18;96996.94;4983077;28;20058;-62
2024/03/31 00:26:54;;;;;;;0.50;0.50;;;;;;;10.73;69.35;96905.00;4983208;28;20057;-62
2024/03/31 00:29:20;;;;;;;0.50;0.50;;;;;;;11.24;69.54;96999.56;4983340;28;20058;-62
2024/03/31 00:31:46;;;;;;;0.50;0.50;;;;;;;11.18;69.59;97003.03;4982886;28;20628;-62
2024/03/31 00:34:15;;;;;;;0.50;0.50;;;;;;;11.16;69.91;97005.41;4999413;28;20062;-64
2024/03/31 00:36:43;;;;;;;0.50;0.50;;;;;;;10.98;70.71;97010.69;4966936;28;20117;-64
2024/03/31 00:39:09;;;;;;;0.50;0.50;;;;;;;10.90;71.60;97013.72;4999507;28;20070;-63
2024/03/31 00:41:35;;;;;;;0.40;0.40;;;;;;;10.59;71.75;96971.28;4999529;28;20410;-63
2024/03/31 00:44:02;;;;;;;0.50;0.50;;;;;;;10.94;71.68;97023.66;4982576;28;20066;-63
2024/03/31 00:46:28;;;;;;;0.50;0.50;;;;;;;11.01;71.37;97003.56;4983342;28;20081;-63
2024/03/31 00:48:54;;;;;;;0.50;0.50;;;;;;;11.02;71.56;96999.66;4998950;28;20409;-63
2024/03/31 00:51:20;;;;;;;0.50;0.50;;;;;;;10.80;71.92;96978.31;4982677;28;20433;-63
2024/03/31 00:53:46;;;;;;;0.50;0.50;;;;;;;10.47;72.31;96946.59;4982532;28;20120;-63
2024/03/31 00:56:12;;;;;;;0.47;0.47;;;;;;;11.03;71.50;97006.78;4999016;28;20725;-63
2024/03/31 00:58:38;;;;;;;0.50;0.50;;;;;;;10.99;71.34;97008.69;4982588;28;20054;-63
2024/03/31 01:01:04;;;;;;;0.43;0.43;;;;;;;11.00;71.33;97013.06;4983879;28;20129;-63
2024/03/31 01:03:30;;;;;;;0.50;0.50;;;;;;;10.94;71.73;97009.81;4999661;28;20517;-63
2024/03/31 01:05:58;;;;;;;0.40;0.40;;;;;;;10.81;71.93;97004.88;4999224;28;20062;-63
2024/03/31 01:08:25;;;;;;;0.50;0.50;;;;;;;10.73;72.73;97007.53;4982585;28;20469;-63
2024/03/31 01:10:51;;;;;;;0.47;0.47;;;;;;;10.36;73.67;96962.22;4982701;28;20062;-63
2024/03/31 01:13:18;;;;;;;0.40;0.40;;;;;;;10.82;72.60;97010.03;4965787;28;20140;-63
2024/03/31 01:15:44;;;;;;;0.43;0.43;;;;;;;10.75;73.18;97015.47;4982502;28;20066;-62
2024/03/31 01:18:11;;;;;;;0.50;0.50;;;;;;;10.79;73.50;97007.22;4982345;28;20508;-62
2024/03/31 01:20:36;;;;;;;0.40;0.40;;;;;;;10.39;73.82;96968.97;4998557;28;20061;-62
2024/03/31 01:23:04;;;;;;;0.43;0.43;;;;;;;10.49;74.05;97010.72;4998343;28;20086;-62
2024/03/31 01:25:34;;;;;;;0.50;0.50;;;;;;;10.44;73.89;96986.09;4998749;28;20119;-62
2024/03/31 01:27:59;;;;;;;0.40;0.40;;;;;;;10.62;74.81;97009.31;4982139;28;20058;-62
2024/03/31 01:30:25;;;;;;;0.50;0.50;;;;;;;10.68;73.49;97007.81;4982546;28;20046;-61
2024/03/31 01:32:51;;;;;;;0.50;0.50;;;;;;;10.68;72.42;96996.75;4966470;28;20504;-62
2024/03/31 01:35:17;;;;;;;0.40;0.40;;;;;;;10.73;72.06;97015.81;4982478;28;20058;-62
2024/03/31 01:37:48;;;;;;;0.50;0.50;;;;;;;10.70;73.35;97010.25;4982393;28;20046;-63
2024/03/31 01:40:14;;;;;;;0.50;0.50;;;;;;;10.73;72.70;97017.00;4982468;28;20065;-63
2024/03/31 01:42:40;;;;;;;0.50;0.50;;;;;;;10.65;72.04;97014.13;4982423;28;20503;-63
2024/03/31 01:45:06;;;;;;;0.47;0.47;;;;;;;10.63;72.10;97016.47;4982048;28;20129;-63
2024/03/31 01:47:32;;;;;;;0.50;0.50;;;;;;;10.57;72.37;97022.69;4965869;28;20054;-63
2024/03/31 01:49:57;;;;;;;0.45;0.45;;;;;;;10.52;74.24;97012.72;4982059;28;20120;-63
2024/03/31 01:52:23;;;;;;;0.50;0.50;;;;;;;10.45;75.17;97020.91;4981737;28;20183;-62
2024/03/31 01:54:49;;;;;;;0.40;0.40;;;;;;;10.58;74.96;97019.56;4981432;28;20062;-64
2024/03/31 01:57:15;;;;;;;0.50;0.50;;;;;;;10.62;73.89;97017.63;4981676;28;20128;-62
2024/03/31 01:59:41;;;;;;;0.50;0.50;;;;;;;10.60;73.73;97017.22;4981399;28;20503;-63
2024/03/31 02:02:07;;;;;;;0.50;0.50;;;;;;;10.45;73.37;97015.38;4981747;28;20062;-63
2024/03/31 02:04:32;;;;;;;0.50;0.50;;;;;;;10.41;74.34;97019.25;4997788;28;20521;-64
2024/03/31 02:06:58;;;;;;;0.50;0.50;;;;;;;10.47;74.15;97017.78;4981975;28;20058;-62
2024/03/31 02:09:24;;;;;;;0.50;0.50;;;;;;;10.49;73.82;97021.78;4981544;28;20081;-62
2024/03/31 02:11:49;;;;;;;0.40;0.40;;;;;;;10.43;74.56;97028.78;4981839;28;20058;-63
2024/03/31 02:14:15;;;;;;;0.50;0.50;;;;;;;10.41;74.91;97024.78;4981786;28;20050;-63
2024/03/31 02:16:41;;;;;;;0.50;0.50;;;;;;;10.31;74.95;97026.22;4981002;28;20094;-63
2024/03/31 02:19:07;;;;;;;0.50;0.50;;;;;;;10.12;74.36;96973.66;4981532;28;20065;-63
2024/03/31 02:21:33;;;;;;;0.43;0.43;;;;;;;10.02;74.99;96974.25;4981309;28;20054;-64
2024/03/31 02:23:58;;;;;;;0.50;0.50;;;;;;;9.35;74.54;96892.00;4981609;28;20054;-64
2024/03/31 02:26:24;;;;;;;0.40;0.40;;;;;;;10.21;75.19;97035.13;4978273;28;20109;-63
2024/03/31 02:28:50;;;;;;;0.43;0.43;;;;;;;10.15;76.06;97033.81;5003715;28;20566;-63
2024/03/31 02:31:15;;;;;;;0.50;0.50;;;;;;;9.75;75.27;96980.88;4981323;28;20066;-63
2024/03/31 02:33:41;;;;;;;0.40;0.40;;;;;;;10.03;75.36;97036.75;4997407;28;20065;-63
2024/03/31 02:36:07;;;;;;;0.40;0.40;;;;;;;10.01;75.81;97033.53;4981170;28;20450;-63
2024/03/31 02:38:33;;;;;;;0.50;0.50;;;;;;;9.78;75.40;97005.03;4981379;28;20050;-63
2024/03/31 02:40:58;;;;;;;0.40;0.40;;;;;;;9.99;75.55;97052.47;4981410;28;20312;-63
2024/03/31 02:43:24;;;;;;;0.47;0.47;;;;;;;9.91;75.81;97039.66;4981093;28;20629;-64
2024/03/31 02:45:50;;;;;;;0.40;0.40;;;;;;;9.94;75.65;97038.91;4980967;28;20059;-63
2024/03/31 02:48:16;;;;;;;0.50;0.50;;;;;;;9.54;75.81;96983.22;4981285;28;20054;-63
2024/03/31 02:50:46;;;;;;;0.40;0.40;;;;;;;9.57;75.77;96988.03;4980715;28;20524;-63
2024/03/31 02:53:12;;;;;;;0.40;0.40;;;;;;;9.56;75.69;96988.38;4981813;28;20061;-62
2024/03/31 02:55:37;;;;;;;0.40;0.40;;;;;;;9.94;76.36;97038.91;4965646;28;20065;-62
2024/03/31 02:58:03;;;;;;;0.40;0.40;;;;;;;9.89;76.21;97033.72;4981579;28;20517;-63
2024/03/31 03:00:29;;;;;;;0.40;0.40;;;;;;;9.00;76.24;96946.56;4982124;28;20058;-62
2024/03/31 03:02:55;;;;;;;0.40;0.40;;;;;;;9.56;76.55;97004.97;4997347;28;20055;-62
2024/03/31 03:05:21;;;;;;;0.40;0.40;;;;;;;9.70;76.31;97061.38;4981140;28;20062;-63
2024/03/31 03:07:46;;;;;;;0.40;0.40;;;;;;;9.64;77.07;97057.28;4980758;28;20513;-62
2024/03/31 03:10:12;;;;;;;0.40;0.40;;;;;;;9.29;76.44;96990.22;4989195;28;20484;-63
2024/03/31 03:12:38;;;;;;;0.40;0.40;;;;;;;9.55;77.18;97014.44;4996392;28;20089;-62
2024/03/31 03:15:04;;;;;;;0.40;0.40;;;;;;;9.38;78.46;96999.09;4980574;28;20468;-63
2024/03/31 03:17:29;;;;;;;0.40;0.40;;;;;;;9.72;77.64;97059.03;4980469;28;20064;-63
2024/03/31 03:19:55;;;;;;;0.40;0.40;;;;;;;9.82;77.84;97052.91;4996916;28;20058;-62
2024/03/31 03:22:21;;;;;;;0.50;0.50;;;;;;;9.82;77.65;97041.84;4982668;28;20046;-63
2024/03/31 03:24:52;;;;;;;0.47;0.47;;;;;;;9.85;78.23;97066.03;4984565;28;20054;-63
2024/03/31 03:27:18;;;;;;;0.40;0.40;;;;;;;9.73;78.43;97038.53;4984814;28;20890;-62
2024/03/31 03:29:44;;;;;;;0.40;0.40;;;;;;;9.65;78.94;97052.56;4984560;28;20058;-63
2024/03/31 03:32:10;;;;;;;0.50;0.50;;;;;;;9.31;77.78;96981.56;4984878;28;20050;-64
2024/03/31 03:34:35;;;;;;;0.40;0.40;;;;;;;9.77;77.40;97050.44;5000918;28;20430;-63
2024/03/31 03:37:01;;;;;;;0.40;0.40;;;;;;;9.73;77.26;97048.78;4984882;28;20054;-63
2024/03/31 03:39:27;;;;;;;0.45;0.45;;;;;;;9.70;76.78;97053.09;4984957;28;20054;-64
2024/03/31 03:41:53;;;;;;;0.40;0.40;;;;;;;9.60;77.65;97058.38;4984589;28;20459;-64
2024/03/31 03:44:19;;;;;;;0.50;0.50;;;;;;;9.60;77.52;97056.41;5000678;28;20061;-63
2024/03/31 03:46:45;;;;;;;0.40;0.40;;;;;;;9.48;77.94;97053.81;4984416;28;20055;-63
2024/03/31 03:49:11;;;;;;;0.40;0.40;;;;;;;9.53;77.85;97061.78;4999704;28;20540;-63
2024/03/31 03:51:38;;;;;;;0.40;0.40;;;;;;;9.23;78.22;97019.31;4983968;28;20054;-63
2024/03/31 03:54:05;;;;;;;0.40;0.40;;;;;;;9.47;78.20;97054.94;4983780;28;20054;-64
2024/03/31 03:56:31;;;;;;;0.40;0.40;;;;;;;8.96;78.15;97003.69;4983893;28;20616;-64
2024/03/31 03:58:57;;;;;;;0.40;0.40;;;;;;;9.37;78.63;97069.38;4983490;28;20725;-64
2024/03/31 04:01:23;;;;;;;0.40;0.40;;;;;;;8.51;78.72;96912.31;4983781;28;20070;-64
2024/03/31 04:03:49;;;;;;;0.50;0.50;;;;;;;9.09;78.52;97027.25;4983484;28;20433;-62
2024/03/31 04:06:15;;;;;;;0.40;0.40;;;;;;;9.14;80.03;97077.53;4983910;28;20062;-62
2024/03/31 04:08:40;;;;;;;0.40;0.40;;;;;;;9.14;80.61;97083.06;4999623;28;20069;-62
2024/03/31 04:11:06;;;;;;;0.40;0.40;;;;;;;9.21;80.10;97076.91;4983846;28;20054;-62
2024/03/31 04:13:32;;;;;;;0.43;0.43;;;;;;;9.24;81.47;97076.19;4983724;28;20529;-63
2024/03/31 04:15:58;;;;;;;0.40;0.40;;;;;;;9.34;81.12;97083.91;4984530;28;20065;-63
2024/03/31 04:18:24;;;;;;;0.40;0.40;;;;;;;9.34;80.97;97069.28;5000137;28;20061;-62
2024/03/31 04:20:50;;;;;;;0.40;0.40;;;;;;;9.41;80.37;97069.41;4999919;28;20058;-63
2024/03/31 04:23:16;;;;;;;0.40;0.40;;;;;;;9.48;80.12;97077.88;4983527;28;20061;-63
2024/03/31 04:25:41;;;;;;;0.40;0.40;;;;;;;8.81;78.81;96958.38;4983343;28;20050;-62
2024/03/31 04:28:07;;;;;;;0.45;0.45;;;;;;;9.63;78.77;97080.56;4983213;28;20058;-63
2024/03/31 04:30:40;;;;;;;0.50;0.50;;;;;;;9.67;78.14;97075.94;4999997;28;20055;-63
2024/03/31 04:33:06;;;;;;;0.40;0.40;;;;;;;9.75;78.17;97080.47;4966307;28;20203;-64
2024/03/31 04:35:36;;;;;;;0.40;0.40;;;;;;;9.83;78.48;97086.94;4979847;28;20093;-63
2024/03/31 04:38:03;;;;;;;0.40;0.40;;;;;;;9.90;78.04;97085.09;4963483;28;20054;-62
2024/03/31 04:40:29;;;;;;;0.40;0.40;;;;;;;9.76;79.17;97090.34;4948004;28;20085;-62
2024/03/31 04:42:54;;;;;;;0.50;0.50;;;;;;;9.93;78.43;97095.44;4963604;28;20533;-63
2024/03/31 04:45:20;;;;;;;0.40;0.40;;;;;;;9.76;77.57;97054.38;4963855;28;20098;-63
2024/03/31 04:47:46;;;;;;;0.40;0.40;;;;;;;10.28;77.60;97093.38;4962271;28;20482;-63
2024/03/31 04:50:12;;;;;;;0.50;0.50;;;;;;;10.33;76.76;97068.19;4963587;28;20105;-63
2024/03/31 04:52:37;;;;;;;0.45;0.45;;;;;;;10.02;76.27;97004.69;4947644;28;20411;-63
2024/03/31 04:55:03;;;;;;;0.47;0.47;;;;;;;10.66;75.43;97098.84;4963772;28;20093;-62
2024/03/31 04:57:29;;;;;;;0.45;0.45;;;;;;;10.64;75.40;97100.34;4963375;28;20101;-63
2024/03/31 04:59:55;;;;;;;0.50;0.50;;;;;;;10.82;75.21;97098.69;4963486;28;20054;-63
2024/03/31 05:02:21;;;;;;;0.50;0.50;;;;;;;10.90;75.00;97088.53;4964021;28;20129;-63
2024/03/31 05:04:46;;;;;;;0.50;0.50;;;;;;;11.06;74.70;97097.50;4963260;28;20059;-63
2024/03/31 05:07:12;;;;;;;0.50;0.50;;;;;;;11.09;73.52;97083.72;4947593;28;20058;-64
2024/03/31 05:09:38;;;;;;;0.50;0.50;;;;;;;11.05;72.57;97054.34;4962538;28;20556;-63
2024/03/31 05:12:04;;;;;;;0.50;0.50;;;;;;;11.58;71.70;97103.03;4963021;28;20057;-62
2024/03/31 05:14:30;;;;;;;0.50;0.50;;;;;;;10.23;75.29;97013.41;4962578;28;20458;-62
2024/03/31 05:16:55;;;;;;;0.50;0.50;;;;;;;11.01;74.51;97064.56;4963011;28;20620;-63
2024/03/31 05:19:21;;;;;;;0.50;0.50;;;;;;;11.62;73.20;97112.19;4946491;28;20062;-63
2024/03/31 05:21:47;;;;;;;0.50;0.50;;;;;;;11.47;71.49;97039.09;4946835;28;20054;-63
2024/03/31 05:24:12;;;;;;;0.50;0.50;;;;;;;12.19;69.92;97109.00;4962537;28;20061;-63
2024/03/31 05:26:38;;;;;;;0.57;0.57;;;;;;;12.25;70.65;97104.72;4962735;28;20090;-63
2024/03/31 05:29:04;;;;;;;0.40;0.40;;;;;;;12.09;70.19;97066.06;4962765;28;20528;-63
2024/03/31 05:31:30;;;;;;;0.50;0.50;;;;;;;12.22;71.71;97104.69;4962892;28;20062;-63
2024/03/31 05:33:55;;;;;;;0.50;0.50;;;;;;;11.87;70.11;97017.03;4962357;28;20058;-63
2024/03/31 05:36:21;;;;;;;0.57;0.57;;;;;;;12.67;69.28;97091.28;4946719;28;20063;-63
2024/03/31 05:38:47;;;;;;;0.60;0.60;;;;;;;12.89;68.77;97112.53;4946674;28;20055;-64
2024/03/31 05:41:13;;;;;;;0.57;0.57;;;;;;;12.82;67.33;97062.41;4963466;28;20058;-63
2024/03/31 05:43:38;;;;;;;0.50;0.50;;;;;;;13.33;65.39;97106.97;4946701;28;20455;-64
2024/03/31 05:46:04;;;;;;;0.50;0.50;;;;;;;13.32;65.51;97083.91;4962681;28;20065;-64
2024/03/31 05:48:30;;;;;;;0.60;0.60;;;;;;;13.57;64.71;97068.16;4962386;28;20090;-63
2024/03/31 05:50:55;;;;;;;0.60;0.60;;;;;;;14.02;63.93;97105.00;4962326;28;20063;-63
2024/03/31 05:53:22;;;;;;;0.60;0.60;;;;;;;14.17;62.33;97106.63;4994863;28;20054;-63
2024/03/31 05:55:48;;;;;;;0.60;0.60;;;;;;;14.40;61.96;97115.53;4946112;28;20113;-63
2024/03/31 05:58:14;;;;;;;0.60;0.60;;;;;;;14.56;61.88;97121.53;4961786;28;20059;-63
2024/03/31 06:00:39;;;;;;;0.60;0.60;;;;;;;14.70;61.32;97113.22;4946127;28;20603;-63
2024/03/31 06:03:05;;;;;;;0.60;0.60;;;;;;;14.80;61.49;97115.22;4945949;28;20477;-64
2024/03/31 06:05:31;;;;;;;0.63;0.63;;;;;;;14.78;62.29;97115.59;4961745;28;20058;-63
2024/03/31 06:07:57;;;;;;;0.60;0.60;;;;;;;15.16;61.69;97114.03;4961723;28;20051;-64
2024/03/31 06:10:22;;;;;;;0.70;0.70;;;;;;;14.57;60.32;96961.44;4962448;28;20061;-64
2024/03/31 06:12:48;;;;;;;0.63;0.63;;;;;;;15.50;60.93;97067.81;4961973;28;20172;-63
2024/03/31 06:15:14;;;;;;;0.70;0.70;;;;;;;15.85;61.16;97115.22;4946266;28;20105;-64
2024/03/31 06:17:40;;;;;;;0.70;0.70;;;;;;;16.13;59.60;97108.72;4946067;28;20510;-64
2024/03/31 06:20:07;;;;;;;0.60;0.60;;;;;;;16.36;58.34;97109.81;4962162;28;20497;-64
2024/03/31 06:22:33;;;;;;;0.70;0.70;;;;;;;16.68;57.38;97120.09;4946672;28;20502;-63
2024/03/31 06:24:59;;;;;;;0.70;0.70;;;;;;;16.60;57.64;97122.94;4962217;28;20134;-64
2024/03/31 06:27:24;;;;;;;0.80;0.80;;;;;;;16.96;56.81;97119.91;4962058;28;20062;-64
2024/03/31 06:29:51;;;;;;;0.70;0.70;;;;;;;17.09;55.77;97116.22;4961521;28;20142;-64
2024/03/31 06:32:17;;;;;;;0.70;0.70;;;;;;;16.93;55.26;97045.97;4962314;28;20081;-63
2024/03/31 06:34:45;;;;;;;0.80;0.80;;;;;;;17.58;54.99;97126.25;4961374;28;20059;-63
2024/03/31 06:37:11;;;;;;;0.90;0.90;;;;;;;17.58;54.77;97117.84;4945802;28;20054;-63
2024/03/31 06:39:37;;;;;;;0.80;0.80;;;;;;;17.58;54.51;97084.22;4961507;28;20059;-63
2024/03/31 06:42:03;;;;;;;0.80;0.80;;;;;;;18.05;53.08;97120.56;4946068;28;20423;-62
2024/03/31 06:44:30;;;;;;;0.85;0.85;;;;;;;18.18;53.27;97118.00;4945458;28;20054;-63
2024/03/31 06:46:56;;;;;;;0.80;0.80;;;;;;;18.12;51.97;97091.66;4961871;28;20703;-64
2024/03/31 06:49:22;;;;;;;0.70;0.70;;;;;;;18.27;51.22;97076.25;4960923;28;20059;-65
2024/03/31 06:51:49;;;;;;;0.90;0.90;;;;;;;18.78;50.92;97112.47;4977919;28;20062;-64
2024/03/31 06:54:15;;;;;;;0.80;0.80;;;;;;;18.88;50.54;97117.13;4993701;28;20120;-65
2024/03/31 06:56:40;;;;;;;0.88;0.88;;;;;;;19.11;50.20;97114.38;4965781;28;23412;-64
2024/03/31 06:59:07;;;;;;;0.82;0.82;;;;;;;19.11;50.03;97114.38;4984353;28;20059;-64
2024/03/31 07:01:32;;;;;;;0.82;0.82;;;;;;;19.28;49.14;97107.72;4985604;28;20058;-64
2024/03/31 07:03:58;;;;;;;0.90;0.90;;;;;;;19.42;48.09;97107.50;4985523;28;20081;-64
2024/03/31 07:06:24;;;;;;;0.90;0.90;;;;;;;19.54;48.46;97106.88;4985413;28;20050;-64
2024/03/31 07:08:50;;;;;;;0.80;0.80;;;;;;;19.49;48.08;97056.78;4983889;28;20856;-64
2024/03/31 07:11:16;;;;;;;0.80;0.80;;;;;;;20.09;47.37;97099.88;4967534;28;20060;-64
2024/03/31 07:13:41;;;;;;;0.80;0.80;;;;;;;20.23;46.85;97105.25;4983309;28;20120;-63
2024/03/31 07:16:07;;;;;;;0.90;0.90;;;;;;;19.68;46.98;97074.13;4967059;28;20054;-64
2024/03/31 07:18:33;;;;;;;0.80;0.80;;;;;;;19.82;46.99;97074.69;4983264;28;20059;-63
2024/03/31 07:20:59;;;;;;;0.90;0.90;;;;;;;20.03;46.42;97073.47;4983193;28;20054;-63
2024/03/31 07:23:25;;;;;;;0.90;0.90;;;;;;;20.20;47.52;97106.13;4983189;28;20058;-63
2024/03/31 07:25:51;;;;;;;0.90;0.90;;;;;;;20.46;46.39;97108.78;4984053;28;20113;-65
2024/03/31 07:28:17;;;;;;;0.80;0.80;;;;;;;19.87;47.73;97098.69;4983835;28;20109;-63
2024/03/31 07:30:45;;;;;;;0.88;0.88;;;;;;;20.35;44.99;97107.41;4984029;28;20492;-64
2024/03/31 07:33:11;;;;;;;0.80;0.80;;;;;;;20.51;44.82;97076.53;4983892;28;20058;-64
2024/03/31 07:35:36;;;;;;;0.80;0.80;;;;;;;20.87;43.78;97094.22;4984037;28;20540;-64
2024/03/31 07:38:02;;;;;;;0.90;0.90;;;;;;;20.96;44.12;97097.25;4983926;28;20205;-64
2024/03/31 07:40:30;;;;;;;0.82;0.82;;;;;;;20.59;43.23;97055.44;4984203;28;20096;-64
2024/03/31 07:42:55;;;;;;;0.95;0.95;;;;;;;20.57;42.96;97097.28;4982484;28;20464;-65
2024/03/31 07:45:21;;;;;;;0.90;0.90;;;;;;;21.13;43.32;97090.44;4968187;28;20582;-65
2024/03/31 07:47:47;;;;;;;0.90;0.90;;;;;;;21.51;43.35;97088.69;4948288;28;20055;-64
2024/03/31 07:50:14;;;;;;;0.80;0.80;;;;;;;21.83;42.91;97088.66;4964624;28;20059;-64
2024/03/31 07:52:41;;;;;;;0.90;0.90;;;;;;;22.22;42.33;97101.72;4964516;28;20058;-65
2024/03/31 07:55:07;;;;;;;0.93;0.93;;;;;;;22.37;41.53;97089.59;4963881;28;20062;-65
2024/03/31 07:57:33;;;;;;;1.00;1.00;;;;;;;22.66;41.08;97092.41;4964098;28;20529;-63
2024/03/31 07:59:58;;;;;;;0.85;0.85;;;;;;;22.37;40.15;97004.91;4963826;28;20050;-63
2024/03/31 08:02:24;;;;;;;1.00;1.00;;;;;;;23.08;39.87;97088.28;4964007;28;20089;-64
2024/03/31 08:04:50;;;;;;;1.00;1.00;;;;;;;23.27;39.28;97112.72;4963975;28;20105;-64
2024/03/31 08:07:15;;;;;;;1.10;1.10;;;;;;;23.22;38.81;97048.25;4963955;28;20445;-64
2024/03/31 08:09:41;;;;;;;1.00;1.00;;;;;;;23.52;38.30;97086.50;4962713;28;20062;-65
2024/03/31 08:12:07;;;;;;;1.00;1.00;;;;;;;23.57;38.13;97083.06;4963769;28;20058;-64
2024/03/31 08:14:33;;;;;;;1.08;1.08;;;;;;;23.71;38.22;97079.78;4963831;28;20510;-64
2024/03/31 08:16:59;;;;;;;1.00;1.00;;;;;;;22.41;39.85;97044.31;4964219;28;20070;-64
2024/03/31 08:19:25;;;;;;;0.90;0.90;;;;;;;22.46;40.38;97047.38;4964330;28;20510;-64
2024/03/31 08:21:51;;;;;;;1.00;1.00;;;;;;;23.13;39.22;97076.41;4964437;28;20062;-63
2024/03/31 08:24:17;;;;;;;1.00;1.00;;;;;;;23.43;39.49;97075.84;4963324;28;20058;-63
2024/03/31 08:26:45;;;;;;;1.00;1.00;;;;;;;23.60;39.22;97073.69;4979556;28;20059;-64
2024/03/31 08:29:11;;;;;;;1.20;1.20;;;;;;;23.97;38.91;97058.69;4963279;28;20077;-65
2024/03/31 08:31:37;;;;;;;1.08;1.08;;;;;;;23.54;38.61;97076.31;4963891;28;20470;-65
2024/03/31 08:34:02;;;;;;;1.20;1.20;;;;;;;23.12;39.04;97065.56;4963320;28;20339;-64
2024/03/31 08:36:28;;;;;;;1.00;1.00;;;;;;;23.55;39.07;97071.44;4963207;28;20051;-64
2024/03/31 08:38:54;;;;;;;1.02;1.02;;;;;;;23.65;38.83;97071.06;4963434;28;20093;-64
2024/03/31 08:41:47;;;;;;;1.00;1.00;;;;;;;23.99;38.01;97067.50;4979420;28;20059;-64
2024/03/31 08:44:16;;;;;;;1.20;1.20;;;;;;;24.24;37.69;97070.25;4963040;28;20054;-64
2024/03/31 08:46:42;;;;;;;0.95;0.95;;;;;;;24.16;37.07;97015.13;4963261;28;20136;-64
2024/03/31 08:49:10;;;;;;;1.10;1.10;;;;;;;24.78;37.26;97059.31;4963063;28;20070;-64
2024/03/31 08:51:38;;;;;;;1.10;1.10;;;;;;;24.52;37.04;97043.69;4963632;28;20085;-65
2024/03/31 08:54:04;;;;;;;1.20;1.20;;;;;;;24.61;37.22;97046.56;4964056;28;20501;-64
2024/03/31 08:56:30;;;;;;;1.02;1.02;;;;;;;24.50;37.69;97046.19;4964185;28;20090;-64
2024/03/31 08:58:59;;;;;;;1.20;1.20;;;;;;;24.62;37.53;97059.50;4963225;28;20059;-64
2024/03/31 09:01:25;;;;;;;1.17;1.17;;;;;;;24.94;37.64;97064.72;4963622;28;20055;-65
2024/03/31 09:03:51;;;;;;;1.00;1.00;;;;;;;24.43;37.55;97006.81;4962979;28;20459;-65
2024/03/31 09:06:17;;;;;;;1.15;1.15;;;;;;;24.89;36.78;97011.50;4963353;28;20058;-65
2024/03/31 09:08:43;;;;;;;1.27;1.27;;;;;;;25.13;36.92;97043.72;4979366;28;20058;-64
2024/03/31 09:11:09;;;;;;;1.25;1.25;;;;;;;24.79;37.10;97049.56;4963010;28;20046;-64
2024/03/31 09:13:35;;;;;;;1.15;1.15;;;;;;;25.19;36.79;97036.22;4963236;28;20399;-65
2024/03/31 09:16:02;;;;;;;1.10;1.10;;;;;;;25.46;37.10;97043.25;4962093;28;20537;-65
2024/03/31 09:18:28;;;;;;;1.27;1.27;;;;;;;25.59;36.16;96995.69;4962050;28;20047;-64
2024/03/31 09:20:54;;;;;;;1.25;1.25;;;;;;;25.85;35.69;97002.63;4962204;28;20042;-64
2024/03/31 09:23:20;;;;;;;1.10;1.10;;;;;;;26.03;36.21;97025.38;4962338;28;20145;-64
2024/03/31 09:25:47;;;;;;;1.35;1.35;;;;;;;26.33;35.32;97033.75;4962459;28;20577;-64
2024/03/31 09:28:14;;;;;;;1.20;1.20;;;;;;;26.30;35.36;97036.75;4962550;28;20093;-64
2024/03/31 09:30:39;;;;;;;1.27;1.27;;;;;;;26.24;35.16;96990.38;4962995;28;20058;-64
2024/03/31 09:33:06;;;;;;;1.27;1.27;;;;;;;26.00;36.01;97020.66;4963066;28;20178;-63
2024/03/31 09:35:32;;;;;;;1.25;1.25;;;;;;;25.75;36.01;97026.59;4988233;28;20061;-64
2024/03/31 09:37:58;;;;;;;1.20;1.20;;;;;;;25.06;37.08;97026.22;4997516;28;20114;-66
2024/03/31 09:40:25;;;;;;;1.23;1.23;;;;;;;25.27;37.37;97025.34;4981634;28;20529;-64
2024/03/31 09:42:51;;;;;;;1.20;1.20;;;;;;;25.89;36.32;97014.63;4982031;28;20054;-64
2024/03/31 09:45:18;;;;;;;1.33;1.33;;;;;;;26.01;36.12;96999.50;4982002;28;20060;-64
2024/03/31 09:47:48;;;;;;;1.17;1.17;;;;;;;26.47;35.17;97010.38;4981617;28;20054;-65
2024/03/31 09:50:35;;;;;;;1.50;1.50;;;;;;;27.07;33.95;97018.91;4981979;28;20054;-65
2024/03/31 09:53:03;;;;;;;1.40;1.40;;;;;;;27.18;33.48;97019.16;4981384;28;20058;-64
2024/03/31 09:55:38;;;;;;;1.48;1.48;;;;;;;27.18;33.47;97016.34;4981454;28;20054;-65
2024/03/31 09:58:11;;;;;;;1.35;1.35;;;;;;;27.11;32.95;96991.06;4982097;28;20085;-65
2024/03/31 10:00:40;;;;;;;1.52;1.52;;;;;;;26.69;33.63;96971.19;4982362;28;20408;-64
2024/03/31 10:03:27;;;;;;;1.42;1.42;;;;;;;27.05;33.23;96997.88;4982223;28;20050;-64
2024/03/31 10:05:54;;;;;;;1.42;1.42;;;;;;;27.69;32.86;97002.81;4998841;28;20073;-63
2024/03/31 10:08:21;;;;;;;1.40;1.40;;;;;;;27.94;31.80;97002.31;4981446;28;20445;-63
2024/03/31 10:10:49;;;;;;;1.58;1.58;;;;;;;28.20;32.29;96990.41;4981712;28;20489;-64
2024/03/31 10:13:16;;;;;;;1.70;1.70;;;;;;;28.43;31.81;96998.09;4965369;28;20057;-65
2024/03/31 10:15:42;;;;;;;1.50;1.50;;;;;;;27.21;31.51;96995.44;4954056;28;20493;-64
2024/03/31 10:18:09;;;;;;;1.50;1.50;;;;;;;27.66;31.11;96963.13;4962394;28;20058;-65
2024/03/31 10:20:36;;;;;;;1.30;1.30;;;;;;;26.53;32.43;96965.03;4962295;28;20477;-64
2024/03/31 10:23:02;;;;;;;1.35;1.35;;;;;;;27.13;32.26;96988.53;4961955;28;20502;-64
2024/03/31 10:25:28;;;;;;;1.55;1.55;;;;;;;27.09;31.18;96922.53;4946014;28;20172;-64
2024/03/31 10:27:56;;;;;;;1.50;1.50;;;;;;;27.99;30.98;96987.41;4961744;28;20062;-63
2024/03/31 10:30:24;;;;;;;1.55;1.55;;;;;;;27.99;31.36;96983.78;4961810;28;20070;-64
2024/03/31 10:32:50;;;;;;;1.60;1.60;;;;;;;27.92;31.23;96984.94;4961139;28;20481;-64
2024/03/31 10:35:17;;;;;;;1.60;1.60;;;;;;;27.96;31.72;96982.66;4961694;28;20718;-65
2024/03/31 10:37:43;;;;;;;1.42;1.42;;;;;;;28.05;31.06;96978.97;4962067;28;20121;-63
2024/03/31 10:40:12;;;;;;;1.73;1.73;;;;;;;28.20;31.16;96973.31;4962019;28;20536;-63
2024/03/31 10:42:41;;;;;;;1.67;1.67;;;;;;;28.64;30.60;96971.31;4962623;28;20095;-62
2024/03/31 10:45:08;;;;;;;1.70;1.70;;;;;;;29.14;30.53;96975.78;4960548;28;20063;-63
2024/03/31 10:47:35;;;;;;;1.60;1.60;;;;;;;28.62;30.63;96971.00;4961369;28;20058;-63
2024/03/31 10:50:07;;;;;;;1.70;1.70;;;;;;;28.45;30.43;96949.94;4945034;28;20453;-65
2024/03/31 10:52:36;;;;;;;1.80;1.80;;;;;;;29.07;30.46;96962.72;4961691;28;20062;-65
2024/03/31 10:55:05;;;;;;;1.75;1.75;;;;;;;29.44;29.73;96951.59;4961248;28;20077;-65
2024/03/31 10:57:35;;;;;;;1.80;1.80;;;;;;;29.76;30.17;96953.34;4961658;28;20058;-65
2024/03/31 11:00:03;;;;;;;1.70;1.70;;;;;;;29.72;29.15;96907.06;4945623;28;20051;-64
2024/03/31 11:02:33;;;;;;;1.60;1.60;;;;;;;30.17;29.03;96940.59;4945706;28;20473;-64
2024/03/31 11:05:00;;;;;;;1.80;1.80;;;;;;;30.31;29.97;96939.75;4961106;28;20058;-64
2024/03/31 11:07:27;;;;;;;1.70;1.70;;;;;;;30.47;29.10;96944.06;4961673;28;20113;-64
2024/03/31 11:09:53;;;;;;;1.70;1.70;;;;;;;30.69;28.56;96942.19;4961423;28;20055;-63
2024/03/31 11:12:21;;;;;;;1.80;1.80;;;;;;;30.85;28.35;96929.34;4961375;28;20063;-62
2024/03/31 11:14:47;;;;;;;1.90;1.90;;;;;;;31.02;27.48;96923.72;4961096;28;20091;-63
2024/03/31 11:17:13;;;;;;;1.60;1.60;;;;;;;30.64;28.08;96885.72;4942478;28;20058;-62
2024/03/31 11:19:39;;;;;;;1.67;1.67;;;;;;;31.01;27.80;96933.63;4957131;28;20081;-62
2024/03/31 11:22:06;;;;;;;1.80;1.80;;;;;;;31.21;27.78;96936.34;4961552;28;20051;-64
2024/03/31 11:24:34;;;;;;;1.70;1.70;;;;;;;31.02;27.93;96929.44;4961140;28;20084;-62
2024/03/31 11:27:01;;;;;;;1.90;1.90;;;;;;;30.37;28.05;96889.09;4962027;28;20113;-62
2024/03/31 11:29:28;;;;;;;1.75;1.75;;;;;;;30.10;28.96;96935.31;4961826;28;20051;-61